Terminal Aerodrome Forecast
Issued by NWS

Home | Current Version | Previous Version | Text Only | Print | Product List | Glossary Off
Versions: 1 2 3 4 5 6 7 8 9 10 11 12 13 14

665
FTUS43 KGRB 191132
TAFMTW
TAF
KMTW 191132Z 1912/2012 31004KT P6SM SCT200
     FM191600 09004KT P6SM SCT250
     FM200900 11005KT 6SM BR SCT150=

USA.gov is the U.S. government's official web portal to all federal, state and local government web resources and services.